Time;durP1;ratioP1;P1;durP2;ratioP2;P2;SDS_P1;SDS_P2;PMS_P1;PMS_P2;Temp;Humidity;BMP_temperature;BMP_pressure;BME280_temperature;BME280_humidity;BME280_pressure;Samples;Min_cycle;Max_cycle;Signal;HPM_P1;HPM_P2
2023/07/28 00:02:04;;;;;;;2.13;1.92;;;;;;;;;;5052585;28;20695;-83
2023/07/28 00:04:31;;;;;;;1.80;1.70;;;;;;;;;;5061461;28;20205;-83
2023/07/28 00:06:58;;;;;;;3.37;2.20;;;;;;;;;;5052544;28;20237;-83
2023/07/28 00:09:25;;;;;;;2.72;2.30;;;;;;;;;;5045771;28;20225;-83
2023/07/28 00:11:53;;;;;;;2.40;2.20;;;;;;;;;;5052157;28;20202;-84
2023/07/28 00:14:21;;;;;;;2.27;1.97;;;;;;;;;;5053027;28;20695;-85
2023/07/28 00:16:48;;;;;;;2.30;1.92;;;;;;;;;;5052376;28;20212;-83
2023/07/28 00:19:15;;;;;;;4.10;2.20;;;;;;;;;;5058940;28;20735;-83
2023/07/28 00:21:42;;;;;;;1.90;1.80;;;;;;;;;;5048378;28;20206;-83
2023/07/28 00:24:09;;;;;;;3.28;2.30;;;;;;;;;;5052671;28;20228;-82
2023/07/28 00:26:36;;;;;;;2.75;2.00;;;;;;;;;;5052476;28;20206;-83
2023/07/28 00:29:06;;;;;;;2.33;2.13;;;;;;;;;;5052635;28;20881;-82
2023/07/28 00:31:33;;;;;;;2.57;2.37;;;;;;;;;;5045122;28;20261;-83
2023/07/28 00:34:00;;;;;;;2.80;2.57;;;;;;;;;;5052007;28;20222;-83
2023/07/28 00:36:27;;;;;;;2.60;2.17;;;;;;;;;;5052594;28;20206;-83
2023/07/28 00:38:54;;;;;;;1.90;1.80;;;;;;;;;;5045640;28;20225;-84
2023/07/28 00:41:22;;;;;;;2.08;1.92;;;;;;;;;;5052223;28;20206;-84
2023/07/28 00:43:49;;;;;;;2.58;2.13;;;;;;;;;;5051563;28;20268;-83
2023/07/28 00:46:17;;;;;;;1.95;1.85;;;;;;;;;;5052254;28;20210;-83
2023/07/28 00:48:44;;;;;;;1.90;1.80;;;;;;;;;;5048422;28;20242;-84
2023/07/28 00:51:11;;;;;;;2.05;1.92;;;;;;;;;;5054819;28;20213;-83
2023/07/28 00:53:39;;;;;;;2.97;2.33;;;;;;;;;;5050953;28;20226;-83
2023/07/28 00:56:07;;;;;;;2.03;1.90;;;;;;;;;;5052076;28;20209;-86
2023/07/28 00:58:34;;;;;;;2.03;1.92;;;;;;;;;;5057679;28;20245;-86
2023/07/28 01:01:01;;;;;;;2.30;2.10;;;;;;;;;;5048854;28;20206;-85
2023/07/28 01:03:30;;;;;;;2.10;1.90;;;;;;;;;;5048633;28;20236;-85
2023/07/28 01:06:01;;;;;;;6.00;2.17;;;;;;;;;;5042293;28;20198;-85
2023/07/28 01:08:30;;;;;;;3.00;2.10;;;;;;;;;;5056893;28;20256;-85
2023/07/28 01:10:57;;;;;;;2.25;2.05;;;;;;;;;;5048404;28;20214;-85
2023/07/28 01:13:24;;;;;;;2.37;2.10;;;;;;;;;;5047170;28;20233;-85
2023/07/28 01:15:51;;;;;;;2.37;1.87;;;;;;;;;;5060104;28;20243;-85
2023/07/28 01:18:18;;;;;;;4.22;2.55;;;;;;;;;;5052840;28;20630;-88
2023/07/28 01:20:48;;;;;;;2.33;2.13;;;;;;;;;;5041996;28;20683;-88
2023/07/28 01:23:20;;;;;;;2.50;2.28;;;;;;;;;;5060055;28;20234;-88
2023/07/28 01:25:55;;;;;;;4.17;2.33;;;;;;;;;;5062597;28;20198;-88
2023/07/28 01:28:23;;;;;;;2.50;2.30;;;;;;;;;;5040555;28;20237;-88
2023/07/28 01:30:50;;;;;;;3.40;2.67;;;;;;;;;;5045782;28;20216;-88
2023/07/28 01:33:17;;;;;;;4.90;2.05;;;;;;;;;;5056715;28;20308;-88
2023/07/28 01:35:45;;;;;;;2.33;1.87;;;;;;;;;;5059860;28;20213;-88
2023/07/28 01:38:12;;;;;;;3.23;2.10;;;;;;;;;;5059479;28;20225;-88
2023/07/28 01:40:39;;;;;;;2.37;1.70;;;;;;;;;;5068313;28;20671;-88
2023/07/28 01:43:06;;;;;;;3.30;2.10;;;;;;;;;;5059504;28;20225;-88
2023/07/28 01:45:35;;;;;;;2.13;2.03;;;;;;;;;;5068744;28;20207;-88
2023/07/28 01:48:02;;;;;;;4.97;2.00;;;;;;;;;;5067138;28;20589;-88
2023/07/28 01:50:29;;;;;;;2.17;1.90;;;;;;;;;;5051977;28;20201;-86
2023/07/28 01:52:56;;;;;;;2.57;1.80;;;;;;;;;;5062930;28;20229;-86
2023/07/28 01:55:23;;;;;;;2.20;2.10;;;;;;;;;;5065501;28;20194;-85
2023/07/28 01:57:56;;;;;;;2.90;2.27;;;;;;;;;;5059267;28;20244;-86
2023/07/28 02:00:23;;;;;;;2.58;1.80;;;;;;;;;;5067702;28;20205;-86
2023/07/28 02:02:52;;;;;;;1.90;1.80;;;;;;;;;;5049336;28;20616;-86
2023/07/28 02:05:19;;;;;;;3.35;2.10;;;;;;;;;;5038256;28;20202;-86
2023/07/28 02:07:46;;;;;;;3.80;1.87;;;;;;;;;;5060976;28;20237;-85
2023/07/28 02:10:14;;;;;;;2.03;1.92;;;;;;;;;;5071800;28;20206;-86
2023/07/28 02:12:41;;;;;;;2.17;1.98;;;;;;;;;;5035793;28;20238;-85
2023/07/28 02:15:08;;;;;;;2.30;2.10;;;;;;;;;;5031730;28;20697;-86
2023/07/28 02:17:35;;;;;;;2.13;1.93;;;;;;;;;;5031489;28;20257;-85
2023/07/28 02:20:04;;;;;;;3.80;2.33;;;;;;;;;;5055708;28;20193;-85
2023/07/28 02:22:31;;;;;;;2.30;2.10;;;;;;;;;;5062745;28;20730;-85
2023/07/28 02:25:01;;;;;;;2.95;2.00;;;;;;;;;;5043360;28;20225;-86
2023/07/28 02:27:28;;;;;;;2.13;1.87;;;;;;;;;;5058778;28;20229;-86
2023/07/28 02:29:55;;;;;;;2.20;2.00;;;;;;;;;;5052075;28;20230;-85
2023/07/28 02:32:22;;;;;;;2.60;2.40;;;;;;;;;;5060823;28;20638;-85
2023/07/28 02:34:49;;;;;;;2.73;2.53;;;;;;;;;;5055000;28;20579;-85
2023/07/28 02:37:18;;;;;;;2.40;2.03;;;;;;;;;;5046247;28;20233;-85
2023/07/28 02:39:45;;;;;;;3.00;2.00;;;;;;;;;;5064577;28;20232;-85
2023/07/28 02:42:13;;;;;;;1.83;1.73;;;;;;;;;;5068405;28;20722;-86
2023/07/28 02:44:40;;;;;;;2.07;1.90;;;;;;;;;;5072511;28;20568;-86
2023/07/28 02:47:07;;;;;;;1.90;1.70;;;;;;;;;;5061569;28;20234;-86
2023/07/28 02:49:34;;;;;;;2.17;2.00;;;;;;;;;;5054704;28;20230;-86
2023/07/28 02:52:02;;;;;;;2.27;1.67;;;;;;;;;;5066265;28;20236;-86
2023/07/28 02:54:31;;;;;;;2.67;1.87;;;;;;;;;;5067576;28;20296;-86
2023/07/28 02:56:58;;;;;;;2.53;1.80;;;;;;;;;;5065858;28;20236;-85
2023/07/28 02:59:25;;;;;;;1.50;1.40;;;;;;;;;;5067569;28;20707;-85
2023/07/28 03:01:52;;;;;;;3.10;1.73;;;;;;;;;;5073051;28;20201;-86
2023/07/28 03:04:20;;;;;;;1.83;1.73;;;;;;;;;;5068671;28;20229;-88
2023/07/28 03:06:48;;;;;;;2.63;1.57;;;;;;;;;;5054083;28;20619;-87
2023/07/28 03:09:16;;;;;;;1.80;1.70;;;;;;;;;;5063707;28;20225;-88
2023/07/28 03:11:44;;;;;;;1.80;1.70;;;;;;;;;;5057521;28;20210;-86
2023/07/28 03:14:12;;;;;;;3.50;1.58;;;;;;;;;;5055807;28;20539;-85
2023/07/28 03:16:39;;;;;;;1.80;1.70;;;;;;;;;;5055169;28;20212;-88
2023/07/28 03:19:07;;;;;;;1.67;1.57;;;;;;;;;;5054797;28;20237;-88
2023/07/28 03:21:34;;;;;;;2.07;1.70;;;;;;;;;;5039175;28;20229;-88
2023/07/28 03:24:01;;;;;;;2.63;1.73;;;;;;;;;;5033959;28;20242;-88
2023/07/28 03:26:28;;;;;;;2.10;1.90;;;;;;;;;;5034595;28;20232;-88
2023/07/28 03:28:57;;;;;;;2.10;1.70;;;;;;;;;;5033617;28;20730;-87
2023/07/28 03:31:24;;;;;;;4.07;1.83;;;;;;;;;;5047528;28;20201;-88
2023/07/28 03:33:51;;;;;;;1.80;1.67;;;;;;;;;;5054997;28;20313;-88
2023/07/28 03:36:19;;;;;;;1.98;1.88;;;;;;;;;;5062458;28;20229;-89
2023/07/28 03:38:46;;;;;;;2.13;1.93;;;;;;;;;;5062848;28;20237;-88
2023/07/28 03:41:14;;;;;;;2.00;1.80;;;;;;;;;;5060674;28;20221;-88
2023/07/28 03:43:41;;;;;;;2.13;1.73;;;;;;;;;;5053343;28;20574;-89
2023/07/28 03:46:10;;;;;;;1.90;1.80;;;;;;;;;;5066871;28;20678;-88
2023/07/28 03:48:37;;;;;;;1.70;1.60;;;;;;;;;;5056829;28;20241;-88
2023/07/28 03:51:04;;;;;;;2.40;1.70;;;;;;;;;;5063081;28;20213;-88
2023/07/28 03:53:31;;;;;;;2.10;1.90;;;;;;;;;;5062872;28;20222;-88
2023/07/28 03:55:58;;;;;;;1.80;1.70;;;;;;;;;;5053366;28;20203;-89
2023/07/28 03:58:26;;;;;;;2.87;2.07;;;;;;;;;;5033641;28;20613;-88
2023/07/28 04:00:53;;;;;;;2.00;1.80;;;;;;;;;;5062033;28;20217;-88
2023/07/28 04:03:22;;;;;;;2.30;2.10;;;;;;;;;;5059491;28;20291;-88
2023/07/28 04:05:49;;;;;;;1.83;1.70;;;;;;;;;;5074736;28;20585;-89
2023/07/28 04:08:16;;;;;;;2.47;1.90;;;;;;;;;;5065429;28;20737;-88
2023/07/28 04:10:44;;;;;;;1.70;1.60;;;;;;;;;;5064740;28;20859;-88
2023/07/28 04:13:11;;;;;;;2.10;1.90;;;;;;;;;;5057787;28;20259;-88
2023/07/28 04:15:38;;;;;;;2.03;1.87;;;;;;;;;;5064707;28;20875;-88
2023/07/28 04:18:05;;;;;;;1.70;1.57;;;;;;;;;;5050447;28;20887;-87
2023/07/28 04:20:33;;;;;;;2.90;1.97;;;;;;;;;;5057182;28;20204;-88
2023/07/28 04:23:00;;;;;;;3.25;1.80;;;;;;;;;;5071082;28;20238;-88
2023/07/28 04:25:27;;;;;;;1.70;1.60;;;;;;;;;;5055130;28;20237;-87
2023/07/28 04:27:56;;;;;;;1.87;1.77;;;;;;;;;;5053447;28;20245;-88
2023/07/28 04:30:23;;;;;;;2.75;1.65;;;;;;;;;;5059806;28;20237;-87
2023/07/28 04:32:50;;;;;;;3.30;2.10;;;;;;;;;;5064016;28;20234;-88
2023/07/28 04:35:17;;;;;;;1.70;1.60;;;;;;;;;;5059182;28;20678;-87
2023/07/28 04:37:45;;;;;;;2.85;1.60;;;;;;;;;;5065516;28;20601;-89
2023/07/28 04:40:13;;;;;;;1.88;1.65;;;;;;;;;;5070550;28;20778;-88
2023/07/28 04:42:40;;;;;;;1.73;1.63;;;;;;;;;;5054715;28;20280;-88
2023/07/28 04:45:08;;;;;;;1.70;1.60;;;;;;;;;;5066897;28;20680;-87
2023/07/28 04:47:34;;;;;;;3.27;1.90;;;;;;;;;;5057467;28;20664;-87
2023/07/28 04:50:01;;;;;;;1.75;1.65;;;;;;;;;;5054151;28;20585;-87
2023/07/28 04:52:28;;;;;;;2.10;2.00;;;;;;;;;;5053643;28;20225;-87
2023/07/28 04:54:57;;;;;;;2.03;1.92;;;;;;;;;;5051530;28;20237;-89
2023/07/28 04:57:24;;;;;;;2.55;2.35;;;;;;;;;;5049866;28;20275;-87
2023/07/28 04:59:52;;;;;;;2.50;2.30;;;;;;;;;;5066024;28;20217;-87
2023/07/28 05:02:19;;;;;;;2.28;2.13;;;;;;;;;;5068560;28;20232;-88
2023/07/28 05:04:47;;;;;;;2.40;2.20;;;;;;;;;;5045867;28;20241;-88
2023/07/28 05:07:14;;;;;;;2.60;2.40;;;;;;;;;;5052388;28;20226;-85
2023/07/28 05:09:41;;;;;;;2.63;2.42;;;;;;;;;;5044475;28;20316;-88
2023/07/28 05:12:11;;;;;;;3.95;2.15;;;;;;;;;;5056160;28;20698;-87
2023/07/28 05:14:39;;;;;;;2.38;2.17;;;;;;;;;;5064796;28;20210;-88
2023/07/28 05:17:06;;;;;;;2.40;2.20;;;;;;;;;;5049379;28;20229;-88
2023/07/28 05:19:33;;;;;;;2.33;2.20;;;;;;;;;;5066748;28;20230;-87
2023/07/28 05:22:00;;;;;;;2.47;2.28;;;;;;;;;;5060619;28;20312;-86
2023/07/28 05:24:27;;;;;;;2.38;2.17;;;;;;;;;;5053301;28;20275;-86
2023/07/28 05:26:54;;;;;;;2.45;2.35;;;;;;;;;;5053612;28;20202;-85
2023/07/28 05:29:23;;;;;;;3.23;2.27;;;;;;;;;;5045581;28;20241;-85
2023/07/28 05:31:50;;;;;;;2.45;2.25;;;;;;;;;;5057994;28;20206;-86
2023/07/28 05:34:17;;;;;;;2.78;2.58;;;;;;;;;;5057789;28;20204;-85
2023/07/28 05:36:45;;;;;;;3.20;2.70;;;;;;;;;;5055943;28;20206;-87
2023/07/28 05:39:12;;;;;;;2.38;2.20;;;;;;;;;;5037313;28;20243;-86
2023/07/28 05:41:39;;;;;;;2.42;2.22;;;;;;;;;;5061567;28;20217;-86
2023/07/28 05:44:06;;;;;;;2.70;2.50;;;;;;;;;;5061793;28;20253;-86
2023/07/28 05:46:34;;;;;;;2.80;2.40;;;;;;;;;;5060161;28;20292;-86
2023/07/28 05:49:02;;;;;;;2.58;2.38;;;;;;;;;;5056245;28;20242;-86
2023/07/28 05:51:29;;;;;;;2.60;2.40;;;;;;;;;;5066778;28;20213;-86
2023/07/28 05:53:56;;;;;;;2.30;2.10;;;;;;;;;;5062687;28;20226;-87
2023/07/28 05:56:23;;;;;;;1.38;1.33;;;;;;;;;;5063609;28;20253;-87
2023/07/28 05:58:50;;;;;;;1.52;1.42;;;;;;;;;;5061097;28;20234;-86
2023/07/28 06:01:17;;;;;;;1.75;1.65;;;;;;;;;;5048924;28;20665;-86
2023/07/28 06:03:46;;;;;;;2.08;1.70;;;;;;;;;;5040458;28;20227;-87
2023/07/28 06:06:13;;;;;;;6.80;3.22;;;;;;;;;;5051005;28;20208;-87
2023/07/28 06:08:40;;;;;;;3.28;1.90;;;;;;;;;;5051798;28;20715;-87
2023/07/28 06:11:08;;;;;;;1.70;1.60;;;;;;;;;;5056569;28;20296;-87
2023/07/28 06:13:38;;;;;;;2.28;1.63;;;;;;;;;;5054899;28;20233;-88
2023/07/28 06:16:06;;;;;;;1.20;1.20;;;;;;;;;;5053692;28;20209;-88
2023/07/28 06:18:33;;;;;;;1.25;1.25;;;;;;;;;;5042851;28;20236;-89
2023/07/28 06:21:02;;;;;;;1.70;1.60;;;;;;;;;;5076575;28;20205;-88
2023/07/28 06:23:29;;;;;;;1.60;1.50;;;;;;;;;;5063887;28;20229;-89
2023/07/28 06:25:56;;;;;;;1.65;1.55;;;;;;;;;;5057111;28;20233;-88
2023/07/28 06:28:23;;;;;;;1.98;1.48;;;;;;;;;;5058572;28;20234;-87
2023/07/28 06:30:55;;;;;;;1.50;1.40;;;;;;;;;;5050378;28;20211;-89
2023/07/28 06:33:22;;;;;;;1.48;1.38;;;;;;;;;;5043567;28;20223;-90
2023/07/28 06:35:49;;;;;;;2.30;1.10;;;;;;;;;;5045427;28;20517;-89
2023/07/28 06:38:17;;;;;;;1.60;1.50;;;;;;;;;;5051970;28;20750;-88
2023/07/28 06:40:44;;;;;;;1.33;1.23;;;;;;;;;;5048074;28;20669;-87
2023/07/28 06:43:12;;;;;;;1.30;1.00;;;;;;;;;;5063779;28;20613;-89
2023/07/28 06:45:39;;;;;;;1.17;1.17;;;;;;;;;;5065938;28;20229;-88
2023/07/28 06:48:06;;;;;;;1.50;1.40;;;;;;;;;;5067253;28;20225;-88
2023/07/28 06:50:33;;;;;;;0.90;0.90;;;;;;;;;;5054038;28;20213;-89
2023/07/28 06:53:00;;;;;;;1.50;1.40;;;;;;;;;;5052552;28;20235;-88
2023/07/28 06:55:29;;;;;;;1.30;1.23;;;;;;;;;;5044935;28;20208;-87
2023/07/28 06:57:56;;;;;;;1.17;1.08;;;;;;;;;;5053217;28;20255;-88
2023/07/28 07:00:23;;;;;;;3.33;1.10;;;;;;;;;;5047039;28;20201;-89
2023/07/28 07:02:50;;;;;;;1.20;1.10;;;;;;;;;;5050890;28;20233;-88
2023/07/28 07:05:18;;;;;;;1.77;1.15;;;;;;;;;;5056787;28;20244;-89
2023/07/28 07:07:45;;;;;;;1.27;1.10;;;;;;;;;;5060642;28;20576;-88
2023/07/28 07:10:12;;;;;;;1.25;1.25;;;;;;;;;;5075159;28;20206;-90
2023/07/28 07:12:40;;;;;;;1.40;1.30;;;;;;;;;;5065154;28;20290;-89
2023/07/28 07:15:09;;;;;;;1.05;1.05;;;;;;;;;;5072310;28;20666;-89
2023/07/28 07:17:36;;;;;;;3.72;1.10;;;;;;;;;;5066020;28;20229;-87
2023/07/28 07:20:03;;;;;;;1.40;1.30;;;;;;;;;;5069661;28;20237;-88
2023/07/28 07:22:30;;;;;;;1.05;1.05;;;;;;;;;;5042281;28;20231;-87
2023/07/28 07:24:58;;;;;;;1.40;1.25;;;;;;;;;;5072046;28;20607;-89
2023/07/28 07:27:25;;;;;;;1.40;1.30;;;;;;;;;;5061894;28;20230;-89
2023/07/28 07:29:54;;;;;;;1.55;1.45;;;;;;;;;;5066840;28;20222;-89
2023/07/28 07:32:21;;;;;;;1.60;1.50;;;;;;;;;;5077057;28;20229;-89
2023/07/28 07:34:48;;;;;;;2.03;1.70;;;;;;;;;;5060480;28;20583;-88
2023/07/28 07:37:15;;;;;;;2.45;1.50;;;;;;;;;;5058437;28;20233;-88
2023/07/28 07:39:43;;;;;;;1.90;1.40;;;;;;;;;;5051342;28;20309;-88
2023/07/28 07:42:11;;;;;;;1.38;1.33;;;;;;;;;;5066382;28;20313;-90
2023/07/28 07:44:38;;;;;;;1.27;1.27;;;;;;;;;;5063885;28;20691;-88
2023/07/28 07:47:14;;;;;;;2.40;1.20;;;;;;;;;;5061452;28;20237;-87
2023/07/28 07:49:41;;;;;;;1.70;1.60;;;;;;;;;;5061294;28;20222;-88
2023/07/28 07:52:09;;;;;;;1.48;1.38;;;;;;;;;;5053906;28;20226;-89
2023/07/28 07:54:36;;;;;;;1.40;1.30;;;;;;;;;;5060997;28;20205;-88
2023/07/28 07:57:03;;;;;;;1.17;1.17;;;;;;;;;;5051945;28;20234;-88
2023/07/28 07:59:32;;;;;;;1.20;1.10;;;;;;;;;;5071470;28;20229;-89
2023/07/28 08:02:00;;;;;;;1.92;1.48;;;;;;;;;;5060675;28;20583;-88
2023/07/28 08:04:28;;;;;;;1.17;1.13;;;;;;;;;;5073478;28;20202;-89
2023/07/28 08:06:56;;;;;;;1.70;1.10;;;;;;;;;;5065961;28;20292;-90
2023/07/28 08:09:23;;;;;;;1.08;1.05;;;;;;;;;;5066107;28;20234;-90
2023/07/28 08:11:50;;;;;;;2.85;1.27;;;;;;;;;;5056559;28;20712;-89
2023/07/28 08:14:17;;;;;;;1.00;1.00;;;;;;;;;;5059788;28;20205;-91
2023/07/28 08:16:45;;;;;;;1.20;1.20;;;;;;;;;;5068360;28;20281;-87
2023/07/28 08:19:12;;;;;;;1.35;1.20;;;;;;;;;;5056942;28;20312;-90
2023/07/28 08:21:40;;;;;;;1.23;1.10;;;;;;;;;;5051984;28;20209;-90
2023/07/28 08:24:08;;;;;;;1.20;1.10;;;;;;;;;;5069108;28;20271;-88
2023/07/28 08:26:35;;;;;;;1.40;1.30;;;;;;;;;;5050409;28;20724;-89
2023/07/28 08:29:02;;;;;;;1.25;1.15;;;;;;;;;;5048849;28;20226;-87
2023/07/28 08:31:29;;;;;;;2.25;1.10;;;;;;;;;;5071210;28;20197;-88
2023/07/28 08:33:56;;;;;;;1.38;1.27;;;;;;;;;;5066103;28;20230;-89
2023/07/28 08:36:23;;;;;;;1.30;0.90;;;;;;;;;;5060753;28;20205;-89
2023/07/28 08:38:52;;;;;;;1.33;1.17;;;;;;;;;;5070524;28;20232;-91
2023/07/28 08:41:19;;;;;;;1.17;1.17;;;;;;;;;;5053798;28;20211;-89
2023/07/28 08:43:46;;;;;;;1.35;1.25;;;;;;;;;;5042435;28;20699;-89
2023/07/28 08:46:14;;;;;;;1.35;1.20;;;;;;;;;;5047439;28;20587;-89
2023/07/28 08:48:41;;;;;;;2.15;1.23;;;;;;;;;;5056220;28;20268;-89
2023/07/28 08:51:09;;;;;;;1.10;1.10;;;;;;;;;;5047802;28;20211;-89
2023/07/28 08:53:36;;;;;;;1.65;1.35;;;;;;;;;;5054159;28;20314;-88
2023/07/28 08:56:04;;;;;;;2.47;1.45;;;;;;;;;;5058368;28;20198;-90
2023/07/28 08:58:32;;;;;;;1.48;1.38;;;;;;;;;;5056698;28;20718;-90
2023/07/28 09:01:01;;;;;;;1.20;1.17;;;;;;;;;;5057052;28;20293;-87
2023/07/28 09:03:28;;;;;;;1.40;1.02;;;;;;;;;;5048376;28;20715;-90
2023/07/28 09:06:00;;;;;;;1.35;1.25;;;;;;;;;;5056814;28;20280;-89
2023/07/28 09:08:27;;;;;;;1.30;1.20;;;;;;;;;;5048976;28;20234;-89
2023/07/28 09:10:55;;;;;;;1.30;1.20;;;;;;;;;;5057090;28;20272;-89
2023/07/28 09:13:24;;;;;;;1.55;1.40;;;;;;;;;;5045268;28;20534;-90
2023/07/28 09:15:51;;;;;;;1.35;1.35;;;;;;;;;;5053272;28;20190;-89
2023/07/28 09:18:18;;;;;;;1.13;1.02;;;;;;;;;;5067329;28;20229;-90
2023/07/28 09:20:46;;;;;;;1.88;1.25;;;;;;;;;;5061072;28;20202;-87
2023/07/28 09:23:16;;;;;;;2.05;1.08;;;;;;;;;;5051745;28;20237;-89
2023/07/28 09:25:43;;;;;;;1.30;1.20;;;;;;;;;;5053486;28;20222;-88
2023/07/28 09:28:11;;;;;;;1.65;1.25;;;;;;;;;;5046804;28;20230;-90
2023/07/28 09:30:47;;;;;;;1.40;1.30;;;;;;;;;;5057891;28;20217;-90
2023/07/28 09:33:14;;;;;;;1.55;1.45;;;;;;;;;;5064430;28;20232;-89
2023/07/28 09:35:49;;;;;;;1.40;1.30;;;;;;;;;;5061749;28;20269;-89
2023/07/28 09:38:16;;;;;;;1.30;1.20;;;;;;;;;;5047985;28;20664;-89
2023/07/28 09:40:43;;;;;;;3.13;1.10;;;;;;;;;;5058758;28;20214;-90
2023/07/28 09:43:10;;;;;;;1.02;1.00;;;;;;;;;;5052966;28;20241;-88
2023/07/28 09:45:38;;;;;;;1.30;1.20;;;;;;;;;;5063546;28;20243;-89
2023/07/28 09:48:08;;;;;;;3.28;1.02;;;;;;;;;;5056612;28;20240;-88
2023/07/28 09:50:36;;;;;;;1.00;0.90;;;;;;;;;;5064144;28;20267;-87
2023/07/28 09:53:03;;;;;;;1.35;1.02;;;;;;;;;;5056104;28;20233;-92
2023/07/28 09:55:31;;;;;;;1.60;1.50;;;;;;;;;;5055889;28;20213;-89
2023/07/28 09:58:02;;;;;;;1.33;1.23;;;;;;;;;;5053900;28;20237;-89
2023/07/28 10:00:30;;;;;;;1.30;1.10;;;;;;;;;;5055078;28;20202;-89
2023/07/28 10:02:58;;;;;;;1.50;1.40;;;;;;;;;;5053394;28;20226;-89
2023/07/28 10:05:27;;;;;;;0.88;0.88;;;;;;;;;;5057608;28;20249;-89
2023/07/28 10:07:55;;;;;;;1.38;1.27;;;;;;;;;;5042006;28;20239;-88
2023/07/28 10:10:22;;;;;;;1.05;0.95;;;;;;;;;;5045214;28;20206;-87
2023/07/28 10:12:51;;;;;;;1.95;1.20;;;;;;;;;;5061434;28;20229;-86
2023/07/28 10:15:19;;;;;;;1.55;1.30;;;;;;;;;;5062685;28;20239;-87
2023/07/28 10:17:47;;;;;;;3.03;1.40;;;;;;;;;;5052719;28;20500;-87
2023/07/28 10:20:32;;;;;;;2.47;1.40;;;;;;;;;;5051828;28;20209;-87
2023/07/28 10:23:06;;;;;;;1.33;1.23;;;;;;;;;;5039508;28;20297;-88
2023/07/28 10:25:35;;;;;;;1.83;1.08;;;;;;;;;;5053454;28;20776;-88
2023/07/28 10:28:03;;;;;;;1.88;1.40;;;;;;;;;;5061296;28;20277;-88
2023/07/28 10:30:30;;;;;;;1.58;1.48;;;;;;;;;;5035657;28;20253;-88
2023/07/28 10:32:57;;;;;;;2.30;1.70;;;;;;;;;;5052585;28;20232;-87
2023/07/28 10:35:25;;;;;;;1.98;1.63;;;;;;;;;;5065329;28;20277;-87
2023/07/28 10:37:56;;;;;;;1.60;1.50;;;;;;;;;;5073312;28;20240;-87
2023/07/28 10:40:23;;;;;;;1.73;1.42;;;;;;;;;;5034512;28;20186;-89
2023/07/28 10:42:50;;;;;;;2.58;1.83;;;;;;;;;;5033065;28;20256;-88
2023/07/28 10:45:18;;;;;;;1.33;1.23;;;;;;;;;;5053373;28;20206;-87
2023/07/28 10:47:46;;;;;;;1.65;1.10;;;;;;;;;;5063503;28;20230;-88
2023/07/28 10:50:13;;;;;;;1.60;1.50;;;;;;;;;;5044175;28;20202;-88
2023/07/28 10:52:41;;;;;;;0.90;0.90;;;;;;;;;;5047056;28;20230;-88
2023/07/28 10:55:15;;;;;;;1.27;1.20;;;;;;;;;;5056382;28;20232;-89
2023/07/28 10:57:43;;;;;;;1.08;1.08;;;;;;;;;;5050336;28;20291;-89
2023/07/28 11:00:11;;;;;;;1.70;1.10;;;;;;;;;;5045543;28;20261;-88
2023/07/28 11:02:39;;;;;;;1.13;1.02;;;;;;;;;;5036616;28;20735;-88
2023/07/28 11:05:12;;;;;;;1.00;1.00;;;;;;;;;;5043316;28;20212;-88
2023/07/28 11:07:39;;;;;;;2.13;1.25;;;;;;;;;;5036014;28;20350;-87
2023/07/28 11:10:07;;;;;;;1.48;1.20;;;;;;;;;;5054219;28;20206;-88
2023/07/28 11:12:35;;;;;;;1.48;1.38;;;;;;;;;;5071922;28;20648;-87
2023/07/28 11:15:03;;;;;;;2.10;1.20;;;;;;;;;;5060613;28;20641;-89
2023/07/28 11:17:30;;;;;;;1.63;1.20;;;;;;;;;;5050511;28;20943;-89
2023/07/28 11:19:57;;;;;;;1.10;1.00;;;;;;;;;;5039011;28;20230;-89
2023/07/28 11:22:24;;;;;;;1.23;1.13;;;;;;;;;;5058768;28;20228;-88
2023/07/28 11:24:52;;;;;;;1.10;1.10;;;;;;;;;;5049948;28;20202;-87
2023/07/28 11:27:19;;;;;;;2.05;0.80;;;;;;;;;;5048557;28;20234;-87
2023/07/28 11:29:48;;;;;;;1.30;1.17;;;;;;;;;;5059277;28;20271;-89
2023/07/28 11:32:17;;;;;;;1.17;1.08;;;;;;;;;;5040827;28;20704;-89
2023/07/28 11:34:44;;;;;;;0.95;0.93;;;;;;;;;;5043417;28;20272;-89
2023/07/28 11:37:12;;;;;;;1.00;1.00;;;;;;;;;;5058519;28;20638;-88
2023/07/28 11:39:40;;;;;;;0.93;0.93;;;;;;;;;;5065465;28;20226;-89
2023/07/28 11:42:07;;;;;;;1.30;1.20;;;;;;;;;;5057235;28;20750;-88
2023/07/28 11:44:35;;;;;;;1.48;1.38;;;;;;;;;;5046368;28;20432;-89
2023/07/28 11:47:06;;;;;;;1.00;1.00;;;;;;;;;;5052814;28;20237;-88
2023/07/28 11:49:33;;;;;;;2.08;1.38;;;;;;;;;;5037302;28;20218;-88
2023/07/28 11:52:00;;;;;;;2.15;0.95;;;;;;;;;;5044731;28;20613;-87
2023/07/28 11:54:27;;;;;;;1.65;1.10;;;;;;;;;;5056343;28;20828;-89
2023/07/28 11:56:56;;;;;;;1.10;1.00;;;;;;;;;;5052190;28;20667;-88
2023/07/28 11:59:23;;;;;;;1.73;1.60;;;;;;;;;;5050892;28;20244;-89
2023/07/28 12:01:54;;;;;;;1.40;1.30;;;;;;;;;;5063688;28;20206;-88
2023/07/28 12:04:23;;;;;;;1.38;1.27;;;;;;;;;;5052840;28;20263;-89
2023/07/28 12:07:06;;;;;;;1.30;1.20;;;;;;;;;;5052103;28;20236;-88
2023/07/28 12:09:33;;;;;;;3.45;1.20;;;;;;;;;;5053407;28;20222;-88
2023/07/28 12:12:00;;;;;;;1.25;1.15;;;;;;;;;;5046665;28;20230;-89
2023/07/28 12:14:34;;;;;;;3.28;1.20;;;;;;;;;;5042746;28;20198;-87
2023/07/28 12:17:02;;;;;;;1.42;1.33;;;;;;;;;;5052316;28;20229;-89
2023/07/28 12:19:31;;;;;;;1.27;1.17;;;;;;;;;;5042408;28;20324;-88
2023/07/28 12:21:58;;;;;;;1.38;1.23;;;;;;;;;;5051727;28;20241;-88
2023/07/28 12:24:25;;;;;;;4.40;1.38;;;;;;;;;;5045497;28;20210;-88
2023/07/28 12:26:52;;;;;;;1.42;1.33;;;;;;;;;;5044246;28;20237;-89
2023/07/28 12:29:19;;;;;;;2.05;1.13;;;;;;;;;;5058916;28;20229;-88
2023/07/28 12:31:46;;;;;;;1.20;1.10;;;;;;;;;;5052084;28;20220;-89
2023/07/28 12:34:13;;;;;;;1.38;1.25;;;;;;;;;;5053416;28;20202;-88
2023/07/28 12:36:42;;;;;;;1.40;1.30;;;;;;;;;;5034462;28;20206;-88
2023/07/28 12:39:09;;;;;;;1.10;1.10;;;;;;;;;;5043554;28;20283;-88
2023/07/28 12:41:36;;;;;;;1.88;1.00;;;;;;;;;;5064707;28;20990;-89
2023/07/28 12:44:03;;;;;;;1.10;0.82;;;;;;;;;;5059507;28;20560;-88
2023/07/28 12:46:30;;;;;;;1.75;1.45;;;;;;;;;;5046591;28;20234;-89
2023/07/28 12:48:57;;;;;;;1.33;1.23;;;;;;;;;;5069289;28;20229;-88
2023/07/28 12:51:25;;;;;;;1.10;1.10;;;;;;;;;;5057603;28;20205;-88
2023/07/28 12:53:53;;;;;;;1.90;1.48;;;;;;;;;;5061382;28;20229;-92
2023/07/28 12:56:21;;;;;;;1.58;1.48;;;;;;;;;;5060739;28;20206;-86
2023/07/28 12:58:48;;;;;;;1.35;1.25;;;;;;;;;;5038611;28;20245;-86
2023/07/28 13:01:15;;;;;;;2.60;1.40;;;;;;;;;;5036316;28;20241;-85
2023/07/28 13:03:42;;;;;;;2.17;1.45;;;;;;;;;;5032055;28;20234;-87
2023/07/28 13:06:09;;;;;;;1.20;1.10;;;;;;;;;;5033315;28;20225;-86
2023/07/28 13:08:36;;;;;;;1.50;1.40;;;;;;;;;;5051632;28;20238;-85
2023/07/28 13:11:04;;;;;;;1.23;1.23;;;;;;;;;;5044862;28;20211;-87
2023/07/28 13:13:33;;;;;;;3.80;1.55;;;;;;;;;;5032687;28;20242;-86
2023/07/28 13:16:00;;;;;;;1.40;1.30;;;;;;;;;;5048790;28;20250;-85
2023/07/28 13:18:29;;;;;;;1.40;1.30;;;;;;;;;;5048394;28;20295;-86
2023/07/28 13:20:56;;;;;;;1.45;1.35;;;;;;;;;;5066827;28;20203;-87
2023/07/28 13:23:23;;;;;;;1.17;1.10;;;;;;;;;;5069989;28;20237;-86
2023/07/28 13:25:50;;;;;;;1.85;1.45;;;;;;;;;;5053315;28;20217;-86
2023/07/28 13:28:19;;;;;;;3.38;1.38;;;;;;;;;;5050820;28;20237;-85
2023/07/28 13:30:46;;;;;;;1.10;1.10;;;;;;;;;;5045350;28;20213;-86
2023/07/28 13:33:13;;;;;;;1.48;1.38;;;;;;;;;;5052019;28;20230;-85
2023/07/28 13:35:40;;;;;;;1.60;1.50;;;;;;;;;;5041398;28;20221;-86
2023/07/28 13:38:07;;;;;;;1.75;1.50;;;;;;;;;;5048087;28;20234;-86
2023/07/28 13:40:34;;;;;;;2.38;1.70;;;;;;;;;;5069057;28;20205;-86
2023/07/28 13:43:01;;;;;;;1.45;1.35;;;;;;;;;;5039969;28;20230;-91
2023/07/28 13:45:30;;;;;;;1.75;1.65;;;;;;;;;;5063398;28;20194;-86
2023/07/28 13:47:57;;;;;;;1.55;1.42;;;;;;;;;;5071312;28;20707;-89
2023/07/28 13:50:24;;;;;;;1.42;1.33;;;;;;;;;;5048440;28;20206;-89
2023/07/28 13:52:51;;;;;;;2.08;1.50;;;;;;;;;;5036508;28;20329;-89
2023/07/28 13:55:18;;;;;;;1.50;1.40;;;;;;;;;;5041648;28;20648;-88
2023/07/28 13:57:45;;;;;;;1.27;1.17;;;;;;;;;;5067294;28;20305;-88
2023/07/28 14:00:13;;;;;;;2.45;1.52;;;;;;;;;;5055252;28;20492;-90
2023/07/28 14:02:42;;;;;;;1.60;1.50;;;;;;;;;;5045208;28;20239;-89
2023/07/28 14:05:10;;;;;;;1.50;1.40;;;;;;;;;;5054358;28;20260;-90
2023/07/28 14:07:37;;;;;;;1.77;1.42;;;;;;;;;;5057238;28;20256;-90
2023/07/28 14:10:04;;;;;;;1.40;1.30;;;;;;;;;;5057252;28;20298;-89
2023/07/28 14:12:32;;;;;;;1.40;1.00;;;;;;;;;;5044815;28;20608;-89
2023/07/28 14:14:59;;;;;;;3.55;1.27;;;;;;;;;;5053548;28;20202;-89
2023/07/28 14:17:26;;;;;;;1.65;1.17;;;;;;;;;;5044543;28;20237;-90
2023/07/28 14:19:54;;;;;;;1.40;1.30;;;;;;;;;;5053165;28;20265;-89
2023/07/28 14:22:21;;;;;;;1.48;1.02;;;;;;;;;;5044663;28;20245;-89
2023/07/28 14:24:48;;;;;;;1.40;1.40;;;;;;;;;;5061966;28;20237;-89
2023/07/28 14:27:15;;;;;;;2.20;1.60;;;;;;;;;;5040071;28;20593;-90
2023/07/28 14:29:43;;;;;;;1.65;1.55;;;;;;;;;;5053385;28;20223;-90
2023/07/28 14:32:10;;;;;;;2.13;1.50;;;;;;;;;;5053159;28;20268;-90
2023/07/28 14:34:37;;;;;;;1.55;1.45;;;;;;;;;;5057583;28;20216;-90
2023/07/28 14:37:06;;;;;;;1.65;1.33;;;;;;;;;;5041652;28;20226;-88
2023/07/28 14:39:33;;;;;;;1.50;1.40;;;;;;;;;;5039228;28;20233;-89
2023/07/28 14:42:00;;;;;;;1.42;1.33;;;;;;;;;;5041792;28;20711;-89
2023/07/28 14:44:27;;;;;;;1.20;1.20;;;;;;;;;;5063537;28;20598;-88
2023/07/28 14:46:54;;;;;;;2.35;1.63;;;;;;;;;;5064202;28;20226;-88